DLH9XY EDDH-LSZH
Flight info
| Callsign | DLH9XY |
|---|---|
| Flight time | 1h 15m |
| Altitude | 33000 |
| Route | IDEKO7G IDEKO N850 ISPOF/N0429F350 N850 ROBEG DCT SWALM/N0424F340 DCT OMOGI/N0431F350 T721 LAMGO/N0357F230 T721 RILAX |
| Aircraft | A20N/M-SDE2E3FGHIRWXY/LB1 |
Departure
| Time | 2026-05-05 19:07 |
|---|---|
| Airport | Hamburg Helmut Schmidt Airport (EDDH) |
Arrival
| Time | 2026-05-05 20:22 |
|---|---|
| Airport | Zürich Airport (LSZH) |
| Time | Latitude | Longitude | Altitude | Speed | Heading |
|---|---|---|---|---|---|
| 2026-05-05 18:40 | 53.62775 | 10.00278 | 48 ft | 0 kts | 63° |
| 2026-05-05 18:58 | 53.62775 | 10.00277 | 48 ft | 1 kts | 63° |
| 2026-05-05 18:58 | 53.62772 | 10.00267 | 48 ft | 2 kts | 63° |
| 2026-05-05 18:59 | 53.62767 | 10.00252 | 48 ft | 1 kts | 63° |
| 2026-05-05 18:59 | 53.62762 | 10.00236 | 45 ft | 2 kts | 63° |
| 2026-05-05 18:59 | 53.62756 | 10.00214 | 47 ft | 3 kts | 63° |
| 2026-05-05 18:59 | 53.62748 | 10.00193 | 46 ft | 2 kts | 39° |
| 2026-05-05 19:00 | 53.62736 | 10.00181 | 48 ft | 2 kts | 6° |
| 2026-05-05 19:00 | 53.62722 | 10.00181 | 47 ft | 2 kts | 335° |
| 2026-05-05 19:00 | 53.62716 | 10.00187 | 46 ft | 0 kts | 329° |
| 2026-05-05 19:03 | 53.62719 | 10.00183 | 47 ft | 3 kts | 329° |
| 2026-05-05 19:03 | 53.62751 | 10.00152 | 48 ft | 8 kts | 330° |
| 2026-05-05 19:04 | 53.62826 | 10.00085 | 46 ft | 7 kts | 332° |
| 2026-05-05 19:04 | 53.62852 | 10.00047 | 48 ft | 6 kts | 302° |
| 2026-05-05 19:04 | 53.62846 | 9.99965 | 46 ft | 10 kts | 241° |
| 2026-05-05 19:04 | 53.62811 | 9.99845 | 45 ft | 10 kts | 248° |
| 2026-05-05 19:05 | 53.62828 | 9.99772 | 45 ft | 7 kts | 338° |
| 2026-05-05 19:05 | 53.62846 | 9.99760 | 43 ft | 0 kts | 333° |
| 2026-05-05 19:06 | 53.62860 | 9.99748 | 44 ft | 13 kts | 335° |
| 2026-05-05 19:06 | 53.63185 | 9.99477 | 46 ft | 87 kts | 333° |
| 2026-05-05 19:06 | 53.63887 | 9.98867 | 50 ft | 140 kts | 333° |
| 2026-05-05 19:07 | 53.64833 | 9.98024 | 360 ft | 155 kts | 334° |
| 2026-05-05 19:07 | 53.65799 | 9.97181 | 877 ft | 159 kts | 337° |
| 2026-05-05 19:07 | 53.66778 | 9.96358 | 1557 ft | 155 kts | 338° |
| 2026-05-05 19:07 | 53.67777 | 9.95524 | 2038 ft | 167 kts | 339° |
| 2026-05-05 19:08 | 53.68880 | 9.94605 | 2423 ft | 186 kts | 338° |
| 2026-05-05 19:08 | 53.70108 | 9.93552 | 2799 ft | 211 kts | 332° |
| 2026-05-05 19:08 | 53.71135 | 9.91694 | 3540 ft | 225 kts | 296° |
| 2026-05-05 19:08 | 53.71454 | 9.89103 | 4125 ft | 235 kts | 267° |
| 2026-05-05 19:09 | 53.71099 | 9.86431 | 4260 ft | 244 kts | 252° |
| 2026-05-05 19:09 | 53.70475 | 9.83544 | 4446 ft | 271 kts | 249° |
| 2026-05-05 19:09 | 53.69794 | 9.80523 | 5234 ft | 276 kts | 250° |
| 2026-05-05 19:09 | 53.69147 | 9.77535 | 6500 ft | 268 kts | 250° |
| 2026-05-05 19:10 | 53.68533 | 9.74576 | 7571 ft | 266 kts | 251° |
| 2026-05-05 19:10 | 53.67937 | 9.71601 | 8555 ft | 269 kts | 251° |
| 2026-05-05 19:10 | 53.67338 | 9.68561 | 9109 ft | 278 kts | 251° |
| 2026-05-05 19:10 | 53.66742 | 9.65527 | 9227 ft | 275 kts | 251° |
| 2026-05-05 19:11 | 53.66137 | 9.62462 | 9349 ft | 275 kts | 250° |
| 2026-05-05 19:11 | 53.65170 | 9.59696 | 9468 ft | 277 kts | 227° |
| 2026-05-05 19:11 | 53.63590 | 9.57856 | 9592 ft | 281 kts | 202° |
| 2026-05-05 19:11 | 53.61664 | 9.57199 | 9738 ft | 285 kts | 188° |
| 2026-05-05 19:12 | 53.59676 | 9.56820 | 10140 ft | 294 kts | 188° |
| 2026-05-05 19:12 | 53.57561 | 9.56417 | 10470 ft | 317 kts | 188° |
| 2026-05-05 19:12 | 53.55304 | 9.55982 | 10941 ft | 333 kts | 188° |
| 2026-05-05 19:12 | 53.52987 | 9.55531 | 11745 ft | 337 kts | 187° |
| 2026-05-05 19:13 | 53.50641 | 9.55071 | 12564 ft | 342 kts | 188° |
| 2026-05-05 19:13 | 53.48264 | 9.54604 | 13394 ft | 346 kts | 188° |
| 2026-05-05 19:13 | 53.45852 | 9.54127 | 14145 ft | 350 kts | 188° |
| 2026-05-05 19:13 | 53.43426 | 9.53649 | 14896 ft | 353 kts | 188° |
| 2026-05-05 19:14 | 53.40969 | 9.53166 | 15609 ft | 357 kts | 187° |
| 2026-05-05 19:14 | 53.38483 | 9.52746 | 16334 ft | 361 kts | 186° |
| 2026-05-05 19:14 | 53.35974 | 9.52370 | 17044 ft | 364 kts | 186° |
| 2026-05-05 19:14 | 53.33440 | 9.51995 | 17822 ft | 366 kts | 186° |
| 2026-05-05 19:15 | 53.30889 | 9.51610 | 18441 ft | 370 kts | 186° |
| 2026-05-05 19:15 | 53.28344 | 9.51219 | 19070 ft | 373 kts | 186° |
| 2026-05-05 19:15 | 53.25749 | 9.50817 | 19692 ft | 375 kts | 186° |
| 2026-05-05 19:15 | 53.23145 | 9.50411 | 20334 ft | 378 kts | 187° |
| 2026-05-05 19:16 | 53.20517 | 9.50001 | 20955 ft | 380 kts | 187° |
| 2026-05-05 19:16 | 53.17872 | 9.49589 | 21584 ft | 383 kts | 187° |
| 2026-05-05 19:16 | 53.15210 | 9.49175 | 22190 ft | 385 kts | 187° |
| 2026-05-05 19:16 | 53.12536 | 9.48759 | 22795 ft | 388 kts | 187° |
| 2026-05-05 19:17 | 53.09834 | 9.48340 | 23400 ft | 390 kts | 187° |
| 2026-05-05 19:17 | 53.07117 | 9.47919 | 23904 ft | 393 kts | 187° |
| 2026-05-05 19:17 | 53.04383 | 9.47496 | 24414 ft | 395 kts | 188° |
| 2026-05-05 19:17 | 53.01630 | 9.47071 | 24914 ft | 396 kts | 188° |
| 2026-05-05 19:18 | 52.98876 | 9.46647 | 25400 ft | 399 kts | 188° |
| 2026-05-05 19:18 | 52.96107 | 9.46220 | 25866 ft | 401 kts | 188° |
| 2026-05-05 19:18 | 52.93324 | 9.45792 | 26330 ft | 403 kts | 188° |
| 2026-05-05 19:18 | 52.90550 | 9.45366 | 26783 ft | 405 kts | 188° |
| 2026-05-05 19:19 | 52.87741 | 9.44935 | 27216 ft | 407 kts | 188° |
| 2026-05-05 19:19 | 52.84909 | 9.44499 | 27647 ft | 409 kts | 187° |
| 2026-05-05 19:19 | 52.82066 | 9.44064 | 28061 ft | 411 kts | 187° |
| 2026-05-05 19:19 | 52.79201 | 9.43627 | 28462 ft | 413 kts | 187° |
| 2026-05-05 19:20 | 52.76334 | 9.43190 | 28841 ft | 415 kts | 187° |
| 2026-05-05 19:20 | 52.73451 | 9.42751 | 29219 ft | 417 kts | 187° |
| 2026-05-05 19:20 | 52.70548 | 9.42309 | 29578 ft | 419 kts | 187° |
| 2026-05-05 19:20 | 52.67638 | 9.41867 | 29935 ft | 421 kts | 187° |
| 2026-05-05 19:21 | 52.64715 | 9.41423 | 30276 ft | 422 kts | 187° |
| 2026-05-05 19:21 | 52.61786 | 9.40978 | 30650 ft | 422 kts | 187° |
| 2026-05-05 19:21 | 52.58853 | 9.40534 | 31021 ft | 423 kts | 187° |
| 2026-05-05 19:21 | 52.55928 | 9.40092 | 31444 ft | 422 kts | 187° |
| 2026-05-05 19:22 | 52.53012 | 9.39653 | 31928 ft | 419 kts | 187° |
| 2026-05-05 19:22 | 52.50124 | 9.39218 | 32405 ft | 416 kts | 187° |
| 2026-05-05 19:22 | 52.47240 | 9.38784 | 32658 ft | 414 kts | 187° |
| 2026-05-05 19:22 | 52.44414 | 9.38358 | 32753 ft | 412 kts | 187° |
| 2026-05-05 19:23 | 52.38706 | 9.37499 | 32844 ft | 413 kts | 187° |
| 2026-05-05 19:23 | 52.32880 | 9.36619 | 32852 ft | 423 kts | 186° |
| 2026-05-05 19:24 | 52.27023 | 9.35746 | 32850 ft | 422 kts | 186° |
| 2026-05-05 19:24 | 52.21165 | 9.34874 | 32850 ft | 422 kts | 186° |
| 2026-05-05 19:25 | 52.15343 | 9.34010 | 32841 ft | 422 kts | 186° |
| 2026-05-05 19:25 | 52.09495 | 9.33140 | 32841 ft | 422 kts | 186° |
| 2026-05-05 19:26 | 52.03648 | 9.32274 | 32835 ft | 421 kts | 186° |
| 2026-05-05 19:26 | 51.97800 | 9.31412 | 32815 ft | 421 kts | 186° |
| 2026-05-05 19:27 | 51.91962 | 9.30554 | 32815 ft | 421 kts | 186° |
| 2026-05-05 19:27 | 51.86161 | 9.29700 | 32816 ft | 421 kts | 185° |
| 2026-05-05 19:28 | 51.80307 | 9.28845 | 32815 ft | 421 kts | 185° |
| 2026-05-05 19:28 | 51.74472 | 9.27995 | 32813 ft | 421 kts | 185° |
| 2026-05-05 19:29 | 51.68638 | 9.27147 | 32811 ft | 421 kts | 185° |
| 2026-05-05 19:29 | 51.62837 | 9.26300 | 32805 ft | 421 kts | 184° |
| 2026-05-05 19:30 | 51.56997 | 9.25456 | 32809 ft | 421 kts | 184° |
| 2026-05-05 19:30 | 51.51161 | 9.24614 | 32807 ft | 421 kts | 184° |
| 2026-05-05 19:31 | 51.45319 | 9.23773 | 32802 ft | 421 kts | 184° |
| 2026-05-05 19:31 | 51.39465 | 9.22931 | 32778 ft | 422 kts | 184° |
| 2026-05-05 19:32 | 51.33598 | 9.22092 | 32781 ft | 423 kts | 184° |
| 2026-05-05 19:32 | 51.27769 | 9.21260 | 32794 ft | 423 kts | 184° |
| 2026-05-05 19:33 | 51.21894 | 9.20423 | 32802 ft | 424 kts | 184° |
| 2026-05-05 19:33 | 51.16005 | 9.19585 | 32776 ft | 426 kts | 183° |
| 2026-05-05 19:34 | 51.10084 | 9.18746 | 32791 ft | 427 kts | 183° |
| 2026-05-05 19:35 | 51.01169 | 9.17487 | 32804 ft | 429 kts | 183° |
| 2026-05-05 19:35 | 50.95240 | 9.16651 | 32795 ft | 430 kts | 183° |
| 2026-05-05 19:36 | 50.89260 | 9.15811 | 32805 ft | 432 kts | 183° |
| 2026-05-05 19:36 | 50.83273 | 9.14973 | 32807 ft | 432 kts | 183° |
| 2026-05-05 19:37 | 50.77282 | 9.14135 | 32811 ft | 432 kts | 183° |
| 2026-05-05 19:37 | 50.71285 | 9.13300 | 32811 ft | 432 kts | 183° |
| 2026-05-05 19:38 | 50.65294 | 9.12467 | 32812 ft | 432 kts | 183° |
| 2026-05-05 19:38 | 50.59341 | 9.11643 | 32814 ft | 432 kts | 183° |
| 2026-05-05 19:39 | 50.53352 | 9.10816 | 32812 ft | 431 kts | 183° |
| 2026-05-05 19:39 | 50.47364 | 9.09989 | 32799 ft | 432 kts | 182° |
| 2026-05-05 19:40 | 50.41367 | 9.09166 | 32806 ft | 433 kts | 182° |
| 2026-05-05 19:40 | 50.35365 | 9.08342 | 32808 ft | 433 kts | 182° |
| 2026-05-05 19:41 | 50.29359 | 9.07519 | 32825 ft | 433 kts | 182° |
| 2026-05-05 19:41 | 50.23325 | 9.06694 | 32794 ft | 435 kts | 182° |
| 2026-05-05 19:42 | 50.17314 | 9.05876 | 32797 ft | 436 kts | 182° |
| 2026-05-05 19:42 | 50.11259 | 9.05054 | 32802 ft | 437 kts | 182° |
| 2026-05-05 19:43 | 50.05197 | 9.04233 | 32798 ft | 438 kts | 182° |
| 2026-05-05 19:43 | 49.99119 | 9.03413 | 32803 ft | 439 kts | 182° |
| 2026-05-05 19:44 | 49.93021 | 9.02591 | 32812 ft | 440 kts | 182° |
| 2026-05-05 19:44 | 49.86913 | 9.01769 | 32824 ft | 440 kts | 182° |
| 2026-05-05 19:45 | 49.80831 | 9.00955 | 32821 ft | 442 kts | 183° |
| 2026-05-05 19:45 | 49.74706 | 9.00135 | 32818 ft | 442 kts | 183° |
| 2026-05-05 19:46 | 49.68587 | 8.99317 | 32818 ft | 441 kts | 183° |
| 2026-05-05 19:46 | 49.62493 | 8.98100 | 32819 ft | 443 kts | 188° |
| 2026-05-05 19:47 | 49.56419 | 8.96409 | 32821 ft | 442 kts | 188° |
| 2026-05-05 19:47 | 49.50389 | 8.94742 | 32822 ft | 442 kts | 188° |
| 2026-05-05 19:48 | 49.44318 | 8.93077 | 32825 ft | 443 kts | 188° |
| 2026-05-05 19:48 | 49.38233 | 8.91417 | 32835 ft | 443 kts | 188° |
| 2026-05-05 19:49 | 49.33192 | 8.90045 | 32832 ft | 442 kts | 189° |
| 2026-05-05 19:49 | 49.26142 | 8.88127 | 32829 ft | 442 kts | 188° |
| 2026-05-05 19:50 | 49.21093 | 8.86758 | 32821 ft | 442 kts | 188° |
| 2026-05-05 19:50 | 49.15048 | 8.85117 | 32831 ft | 441 kts | 189° |
| 2026-05-05 19:51 | 49.09003 | 8.83466 | 32828 ft | 440 kts | 189° |
| 2026-05-05 19:51 | 49.02966 | 8.81822 | 32819 ft | 440 kts | 189° |
| 2026-05-05 19:52 | 48.96976 | 8.80196 | 32822 ft | 440 kts | 189° |
| 2026-05-05 19:52 | 48.90946 | 8.78567 | 32826 ft | 440 kts | 190° |
| 2026-05-05 19:53 | 48.84916 | 8.76940 | 32830 ft | 439 kts | 190° |
| 2026-05-05 19:53 | 48.78894 | 8.75325 | 32890 ft | 435 kts | 190° |
| 2026-05-05 19:53 | 48.75932 | 8.74531 | 32583 ft | 430 kts | 190° |
| 2026-05-05 19:54 | 48.72980 | 8.73743 | 31725 ft | 433 kts | 190° |
| 2026-05-05 19:54 | 48.69998 | 8.72947 | 30755 ft | 437 kts | 190° |
| 2026-05-05 19:54 | 48.67009 | 8.72150 | 30157 ft | 433 kts | 190° |
| 2026-05-05 19:54 | 48.64066 | 8.71366 | 29719 ft | 424 kts | 190° |
| 2026-05-05 19:55 | 48.61219 | 8.70607 | 29156 ft | 418 kts | 190° |
| 2026-05-05 19:55 | 48.58375 | 8.69849 | 28600 ft | 411 kts | 190° |
| 2026-05-05 19:55 | 48.55575 | 8.69105 | 28049 ft | 406 kts | 190° |
| 2026-05-05 19:55 | 48.52813 | 8.68372 | 27517 ft | 400 kts | 190° |
| 2026-05-05 19:56 | 48.50080 | 8.67647 | 26979 ft | 396 kts | 190° |
| 2026-05-05 19:56 | 48.47382 | 8.66932 | 26458 ft | 391 kts | 190° |
| 2026-05-05 19:56 | 48.44713 | 8.66225 | 25933 ft | 387 kts | 190° |
| 2026-05-05 19:56 | 48.42076 | 8.65527 | 25415 ft | 383 kts | 190° |
| 2026-05-05 19:57 | 48.39464 | 8.64836 | 24910 ft | 380 kts | 189° |
| 2026-05-05 19:57 | 48.36873 | 8.64143 | 24399 ft | 376 kts | 190° |
| 2026-05-05 19:57 | 48.34310 | 8.63385 | 23887 ft | 373 kts | 191° |
| 2026-05-05 19:57 | 48.31773 | 8.62599 | 23335 ft | 372 kts | 191° |
| 2026-05-05 19:58 | 48.29275 | 8.61826 | 22838 ft | 367 kts | 191° |
| 2026-05-05 19:58 | 48.26793 | 8.61065 | 22339 ft | 362 kts | 191° |
| 2026-05-05 19:58 | 48.24338 | 8.60321 | 21850 ft | 358 kts | 191° |
| 2026-05-05 19:58 | 48.21913 | 8.59589 | 21398 ft | 353 kts | 191° |
| 2026-05-05 19:59 | 48.19455 | 8.58850 | 21140 ft | 372 kts | 191° |
| 2026-05-05 19:59 | 48.16881 | 8.58077 | 20881 ft | 378 kts | 191° |
| 2026-05-05 19:59 | 48.14309 | 8.57308 | 20630 ft | 374 kts | 191° |
| 2026-05-05 19:59 | 48.11770 | 8.56552 | 20373 ft | 372 kts | 192° |
| 2026-05-05 20:00 | 48.09241 | 8.55803 | 20122 ft | 368 kts | 192° |
| 2026-05-05 20:00 | 48.06778 | 8.55070 | 19883 ft | 365 kts | 192° |
| 2026-05-05 20:00 | 48.04275 | 8.54327 | 19635 ft | 365 kts | 192° |
| 2026-05-05 20:00 | 48.01781 | 8.53586 | 19245 ft | 366 kts | 192° |
| 2026-05-05 20:01 | 47.99257 | 8.52838 | 18495 ft | 372 kts | 193° |
| 2026-05-05 20:01 | 47.96658 | 8.52273 | 17514 ft | 382 kts | 182° |
| 2026-05-05 20:01 | 47.94029 | 8.52801 | 16787 ft | 384 kts | 166° |
| 2026-05-05 20:01 | 47.91633 | 8.54459 | 16148 ft | 386 kts | 149° |
| 2026-05-05 20:02 | 47.89503 | 8.56911 | 15514 ft | 385 kts | 143° |
| 2026-05-05 20:02 | 47.87484 | 8.59457 | 15267 ft | 371 kts | 143° |
| 2026-05-05 20:02 | 47.85562 | 8.61901 | 15080 ft | 358 kts | 143° |
| 2026-05-05 20:02 | 47.83650 | 8.64292 | 14547 ft | 358 kts | 144° |
| 2026-05-05 20:03 | 47.81734 | 8.66645 | 14173 ft | 357 kts | 144° |
| 2026-05-05 20:03 | 47.79833 | 8.68957 | 13820 ft | 357 kts | 144° |
| 2026-05-05 20:03 | 47.77912 | 8.71286 | 13435 ft | 354 kts | 144° |
| 2026-05-05 20:03 | 47.76008 | 8.73590 | 13097 ft | 351 kts | 145° |
| 2026-05-05 20:04 | 47.74119 | 8.75874 | 12990 ft | 350 kts | 145° |
| 2026-05-05 20:04 | 47.72222 | 8.78162 | 12885 ft | 352 kts | 145° |
| 2026-05-05 20:04 | 47.70323 | 8.80451 | 12885 ft | 351 kts | 145° |
| 2026-05-05 20:04 | 47.68430 | 8.82732 | 12891 ft | 352 kts | 145° |
| 2026-05-05 20:05 | 47.66522 | 8.85027 | 12881 ft | 352 kts | 144° |
| 2026-05-05 20:05 | 47.64616 | 8.87315 | 12707 ft | 352 kts | 144° |
| 2026-05-05 20:05 | 47.62807 | 8.89761 | 12426 ft | 350 kts | 136° |
| 2026-05-05 20:05 | 47.61364 | 8.92535 | 12299 ft | 340 kts | 126° |
| 2026-05-05 20:06 | 47.60246 | 8.95571 | 12170 ft | 329 kts | 120° |
| 2026-05-05 20:06 | 47.59228 | 8.98522 | 12043 ft | 316 kts | 121° |
| 2026-05-05 20:06 | 47.58242 | 9.01353 | 11931 ft | 303 kts | 121° |
| 2026-05-05 20:06 | 47.57303 | 9.04071 | 11789 ft | 291 kts | 117° |
| 2026-05-05 20:07 | 47.56820 | 9.06936 | 11694 ft | 282 kts | 102° |
| 2026-05-05 20:07 | 47.56564 | 9.09758 | 11587 ft | 271 kts | 100° |
| 2026-05-05 20:07 | 47.56341 | 9.12492 | 11355 ft | 265 kts | 100° |
| 2026-05-05 20:07 | 47.56117 | 9.15193 | 11106 ft | 265 kts | 100° |
| 2026-05-05 20:08 | 47.55905 | 9.17902 | 10883 ft | 264 kts | 94° |
| 2026-05-05 20:08 | 47.56273 | 9.20552 | 10597 ft | 266 kts | 64° |
| 2026-05-05 20:08 | 47.57417 | 9.22629 | 10261 ft | 265 kts | 34° |
| 2026-05-05 20:08 | 47.59092 | 9.23674 | 9898 ft | 261 kts | 4° |
| 2026-05-05 20:09 | 47.60855 | 9.23405 | 9504 ft | 253 kts | 333° |
| 2026-05-05 20:09 | 47.62236 | 9.21936 | 9151 ft | 240 kts | 302° |
| 2026-05-05 20:09 | 47.62889 | 9.19777 | 8966 ft | 226 kts | 275° |
| 2026-05-05 20:09 | 47.63117 | 9.17378 | 8895 ft | 242 kts | 273° |
| 2026-05-05 20:10 | 47.63328 | 9.14916 | 8886 ft | 239 kts | 273° |
| 2026-05-05 20:10 | 47.63535 | 9.12468 | 8893 ft | 239 kts | 273° |
| 2026-05-05 20:10 | 47.63740 | 9.10038 | 8893 ft | 240 kts | 273° |
| 2026-05-05 20:10 | 47.63949 | 9.07575 | 8880 ft | 240 kts | 273° |
| 2026-05-05 20:11 | 47.64156 | 9.05119 | 8885 ft | 240 kts | 273° |
| 2026-05-05 20:11 | 47.64356 | 9.02665 | 8888 ft | 239 kts | 271° |
| 2026-05-05 20:11 | 47.64360 | 9.00205 | 8883 ft | 238 kts | 264° |
| 2026-05-05 20:11 | 47.64259 | 8.97758 | 8888 ft | 238 kts | 263° |
| 2026-05-05 20:12 | 47.64157 | 8.95310 | 8889 ft | 238 kts | 263° |
| 2026-05-05 20:12 | 47.64053 | 8.92862 | 8895 ft | 238 kts | 263° |
| 2026-05-05 20:12 | 47.63952 | 8.90416 | 8896 ft | 237 kts | 263° |
| 2026-05-05 20:12 | 47.63857 | 8.87984 | 8896 ft | 237 kts | 263° |
| 2026-05-05 20:13 | 47.63754 | 8.85556 | 8897 ft | 238 kts | 263° |
| 2026-05-05 20:13 | 47.63649 | 8.83114 | 8891 ft | 237 kts | 263° |
| 2026-05-05 20:13 | 47.63328 | 8.80799 | 8899 ft | 223 kts | 240° |
| 2026-05-05 20:13 | 47.62291 | 8.79150 | 8864 ft | 222 kts | 211° |
| 2026-05-05 20:14 | 47.60786 | 8.78570 | 8540 ft | 232 kts | 182° |
| 2026-05-05 20:14 | 47.59221 | 8.79288 | 8166 ft | 247 kts | 152° |
| 2026-05-05 20:14 | 47.57906 | 8.80933 | 7829 ft | 251 kts | 143° |
| 2026-05-05 20:14 | 47.56605 | 8.82664 | 7507 ft | 249 kts | 143° |
| 2026-05-05 20:15 | 47.55298 | 8.84358 | 7174 ft | 249 kts | 143° |
| 2026-05-05 20:15 | 47.54009 | 8.86028 | 6839 ft | 249 kts | 143° |
| 2026-05-05 20:15 | 47.52704 | 8.87721 | 6522 ft | 249 kts | 143° |
| 2026-05-05 20:15 | 47.51416 | 8.89394 | 6207 ft | 248 kts | 143° |
| 2026-05-05 20:16 | 47.49970 | 8.90649 | 5852 ft | 237 kts | 171° |
| 2026-05-05 20:16 | 47.48358 | 8.90878 | 5523 ft | 231 kts | 183° |
| 2026-05-05 20:16 | 47.46786 | 8.90948 | 5380 ft | 218 kts | 184° |
| 2026-05-05 20:16 | 47.45325 | 8.90919 | 5252 ft | 201 kts | 197° |
| 2026-05-05 20:17 | 47.44173 | 8.89992 | 5077 ft | 184 kts | 233° |
| 2026-05-05 20:17 | 47.43635 | 8.88357 | 5000 ft | 177 kts | 253° |
| 2026-05-05 20:17 | 47.43263 | 8.86609 | 4996 ft | 178 kts | 253° |
| 2026-05-05 20:17 | 47.43132 | 8.84837 | 5009 ft | 177 kts | 276° |
| 2026-05-05 20:18 | 47.43357 | 8.83013 | 5002 ft | 179 kts | 281° |
| 2026-05-05 20:18 | 47.43648 | 8.81218 | 4997 ft | 178 kts | 281° |
| 2026-05-05 20:18 | 47.43946 | 8.79413 | 4861 ft | 182 kts | 282° |
| 2026-05-05 20:18 | 47.44199 | 8.77586 | 4552 ft | 182 kts | 276° |
| 2026-05-05 20:19 | 47.44332 | 8.75715 | 4196 ft | 185 kts | 272° |
| 2026-05-05 20:19 | 47.44471 | 8.73836 | 3921 ft | 178 kts | 274° |
| 2026-05-05 20:19 | 47.44593 | 8.72058 | 3690 ft | 174 kts | 274° |
| 2026-05-05 20:19 | 47.44733 | 8.70269 | 3499 ft | 177 kts | 273° |
| 2026-05-05 20:20 | 47.44876 | 8.68458 | 3273 ft | 175 kts | 275° |
| 2026-05-05 20:20 | 47.44985 | 8.66714 | 3024 ft | 168 kts | 272° |
| 2026-05-05 20:20 | 47.45092 | 8.65048 | 2768 ft | 156 kts | 273° |
| 2026-05-05 20:20 | 47.45204 | 8.63499 | 2492 ft | 149 kts | 273° |
| 2026-05-05 20:21 | 47.45316 | 8.62010 | 2246 ft | 145 kts | 273° |
| 2026-05-05 20:21 | 47.45409 | 8.60535 | 2029 ft | 139 kts | 275° |
| 2026-05-05 20:21 | 47.45510 | 8.59132 | 1802 ft | 138 kts | 275° |
| 2026-05-05 20:21 | 47.45612 | 8.57742 | 1562 ft | 137 kts | 275° |
| 2026-05-05 20:22 | 47.45707 | 8.56364 | 1407 ft | 129 kts | 275° |
| 2026-05-05 20:22 | 47.45783 | 8.55286 | 1397 ft | 84 kts | 275° |
| 2026-05-05 20:22 | 47.45823 | 8.54664 | 1402 ft | 28 kts | 274° |
| 2026-05-05 20:22 | 47.45791 | 8.54378 | 1399 ft | 28 kts | 239° |
| 2026-05-05 20:23 | 47.45741 | 8.54231 | 1399 ft | 13 kts | 236° |
| 2026-05-05 20:23 | 47.45701 | 8.54213 | 1395 ft | 0 kts | 190° |
| 2026-05-05 20:24 | 47.45696 | 8.54212 | 1394 ft | 4 kts | 190° |
| 2026-05-05 20:24 | 47.45635 | 8.54235 | 1398 ft | 14 kts | 137° |
| 2026-05-05 20:24 | 47.45594 | 8.54374 | 1397 ft | 15 kts | 105° |
| 2026-05-05 20:25 | 47.45557 | 8.54551 | 1396 ft | 11 kts | 114° |
| 2026-05-05 20:25 | 47.45521 | 8.54684 | 1398 ft | 18 kts | 108° |
| 2026-05-05 20:25 | 47.45475 | 8.54893 | 1401 ft | 22 kts | 108° |
| 2026-05-05 20:25 | 47.45442 | 8.55038 | 1405 ft | 5 kts | 109° |
| 2026-05-05 20:26 | 47.45419 | 8.55131 | 1403 ft | 13 kts | 110° |
| 2026-05-05 20:26 | 47.45408 | 8.55175 | 1401 ft | 7 kts | 110° |
| 2026-05-05 20:26 | 47.45388 | 8.55255 | 1408 ft | 0 kts | 110° |
| 2026-05-05 20:27 | 47.45387 | 8.55259 | 1408 ft | 0 kts | 110° |
| 2026-05-05 20:27 | 47.45385 | 8.55269 | 1407 ft | 5 kts | 111° |
| 2026-05-05 20:27 | 47.45360 | 8.55339 | 1403 ft | 10 kts | 118° |
| 2026-05-05 20:28 | 47.45312 | 8.55465 | 1400 ft | 17 kts | 120° |
| 2026-05-05 20:28 | 47.45273 | 8.55616 | 1396 ft | 16 kts | 92° |
| 2026-05-05 20:28 | 47.45262 | 8.55785 | 1396 ft | 18 kts | 96° |
| 2026-05-05 20:28 | 47.45249 | 8.55958 | 1396 ft | 9 kts | 97° |
| 2026-05-05 20:29 | 47.45252 | 8.55994 | 1400 ft | 7 kts | 64° |
| 2026-05-05 20:29 | 47.45313 | 8.56015 | 1396 ft | 8 kts | 6° |
| 2026-05-05 20:29 | 47.45326 | 8.56017 | 1396 ft | 0 kts | 7° |